F/V Eema 2 — FL9603 — position and weather

sailwx.info

Track history (hours):
 
Tides and Currents Weather Stations Pressure Air Temp Water Temp Dewpoint Dewpoint Depression Visibility Wind Speed Wind Dir Waves Ship Positions

F/V Eema 2

Last reported at 2015-Feb-26 10:32 UTC. Time now 2015-Feb-27 04:07 UTC.
Position N 43°23' W 001°40'.

Length 10 m.

Type: Fishing. MMSI: 22700000.

Date/timePositionNaut miles runAvg speedWind from/ knotsBaromVisibWave heightAir tempDewpointWater temp
2015-Feb-26 10:32N 43°23' W 001°40'0 0.0
2015-Feb-26 09:05N 43°23' W 001°40'0 0.0
2015-Feb-26 08:32N 43°23' W 001°40'0 0.0
2015-Feb-25 16:08N 43°23' W 001°40'0 0.0
2015-Feb-25 12:26N 43°23' W 001°40'0 0.1
2015-Feb-25 11:32N 43°23' W 001°40'0 0.0
2015-Feb-25 10:32N 43°23' W 001°40'0 0.0
2015-Feb-25 09:32N 43°23' W 001°40'0 0.0
2015-Feb-25 08:33N 43°23' W 001°40'0 0.1
2015-Feb-25 07:16N 43°23' W 001°40'0 0.0
2015-Feb-25 05:22N 43°23' W 001°40'0 0.0
2015-Feb-25 04:04N 43°23' W 001°40'0 0.0
2015-Feb-25 03:28N 43°23' W 001°40'0 0.0
2015-Feb-25 01:16N 43°23' W 001°40'0 0.0
2015-Feb-24 23:04N 43°23' W 001°40'0 0.0
2015-Feb-24 21:10N 43°23' W 001°40'0 0.0
2015-Feb-24 20:10N 43°23' W 001°40'0 0.0
2015-Feb-24 19:28N 43°23' W 001°40'0 0.0
2015-Feb-24 18:04N 43°23' W 001°40'0 0.0
2015-Feb-24 17:28N 43°23' W 001°40'0 0.0
2015-Feb-24 16:22N 43°23' W 001°40'0 0.0
2015-Feb-24 14:22N 43°23' W 001°40'0 0.0
2015-Feb-24 13:28N 43°23' W 001°40'0 0.0
2015-Feb-24 12:06N 43°23' W 001°40'0 0.0
2015-Feb-24 09:09N 43°23' W 001°40'0 0.0
2015-Feb-24 08:33N 43°23' W 001°40'0 0.0
2015-Feb-23 16:31N 43°23' W 001°40'0 0.0
2015-Feb-23 11:16N 43°23' W 001°40'0 0.0
2015-Feb-23 03:17N 43°23' W 001°40'0 0.0
2015-Feb-22 23:29N 43°23' W 001°40'0 0.0
2015-Feb-22 22:05N 43°23' W 001°40'0 0.0
2015-Feb-22 20:33N 43°23' W 001°40'0 0.1
2015-Feb-22 19:32N 43°23' W 001°40'0 0.1
2015-Feb-22 18:33N 43°23' W 001°40'8 7.6
2015-Feb-22 17:33N 43°31' W 001°40'59 2.0
2015-Feb-21 12:17N 44°29' W 001°28'1 0.0
2015-Feb-20 11:10N 44°29' W 001°29'2 1.6
2015-Feb-20 10:07N 44°27' W 001°29'2 2.0
2015-Feb-20 09:10N 44°25' W 001°29'3 4.8
2015-Feb-20 08:33N 44°22' W 001°30'2 2.2
2015-Feb-20 07:33N 44°24' W 001°29'2 2.2
2015-Feb-20 06:33N 44°27' W 001°29'2 2.1
2015-Feb-20 05:33N 44°29' W 001°29'1 1.4
2015-Feb-20 04:33N 44°27' W 001°28'2 1.8
2015-Feb-20 03:32N 44°26' W 001°28'1 0.8
2015-Feb-20 02:14N 44°25' W 001°28'0 0.0
2015-Feb-20 01:24N 44°25' W 001°28'0 0.0
2015-Feb-20 00:23N 44°25' W 001°28'0 0.0
2015-Feb-19 20:30N 44°25' W 001°29'3 0.6
2015-Feb-19 16:04N 44°27' W 001°29'3 1.8
2015-Feb-19 14:14N 44°24' W 001°30'41 8.2
2015-Feb-19 09:15N 43°44' W 001°36'14 8.1
2015-Feb-19 07:33N 43°30' W 001°39'7 0.2
2015-Feb-18 02:17N 43°23' W 001°40'0 0.0
2015-Feb-18 00:18N 43°23' W 001°40'0 0.1
2015-Feb-17 23:32N 43°23' W 001°40'0 0.0
2015-Feb-17 21:32N 43°23' W 001°40'0 0.0
2015-Feb-17 20:17N 43°23' W 001°40'4 5.8
2015-Feb-17 19:32N 43°27' W 001°40'66 8.2
2015-Feb-17 11:29N 44°33' W 001°26'8 8.5
2015-Feb-17 10:33N 44°41' W 001°25'1 1.3
2015-Feb-17 09:33N 44°42' W 001°24'2 1.6
2015-Feb-17 08:33N 44°41' W 001°24'0 0.3
2015-Feb-17 07:33N 44°41' W 001°24'1 0.8
2015-Feb-17 06:33N 44°42' W 001°24'2 1.9
2015-Feb-17 05:33N 44°40' W 001°24'4 3.7
2015-Feb-17 04:29N 44°44' W 001°23'2 2.1
2015-Feb-17 03:32N 44°42' W 001°23'2 2.2
2015-Feb-17 02:33N 44°40' W 001°23'0 0.4
2015-Feb-17 01:33N 44°39' W 001°23'0 0.0
2015-Feb-17 00:33N 44°39' W 001°23'0 0.0
2015-Feb-16 23:33N 44°39' W 001°23'0 0.0
2015-Feb-16 22:33N 44°39' W 001°23'0 0.0
2015-Feb-16 21:33N 44°39' W 001°23'0 0.0
2015-Feb-16 20:33N 44°39' W 001°23'0 0.2
2015-Feb-16 19:33N 44°39' W 001°23'0 0.1
2015-Feb-16 18:33N 44°39' W 001°23'0 0.1
2015-Feb-16 17:33N 44°39' W 001°23'0 0.0
2015-Feb-16 16:33N 44°39' W 001°23'0 0.0
2015-Feb-16 15:33N 44°39' W 001°23'0 0.5
2015-Feb-16 14:33N 44°39' W 001°23'4 4.0
2015-Feb-16 13:33N 44°43' W 001°24'2 2.1
2015-Feb-16 12:33N 44°41' W 001°24'5 5.0
2015-Feb-16 11:33N 44°46' W 001°23'1 0.7
2015-Feb-16 10:33N 44°45' W 001°24'  
Track history (hours):
 
Tides and Currents Weather Stations Pressure Air Temp Water Temp Dewpoint Dewpoint Depression Visibility Wind Speed Wind Dir Waves Ship Positions

F/V Eema 2

Last reported at 2015-Feb-26 10:32 UTC. Time now 2015-Feb-27 04:07 UTC.
Position N 43°23' W 001°40'.

Length 10 m.

Type: Fishing. MMSI: 22700000.

Date/timePositionNaut miles runAvg speedWind from/ knotsBaromVisibWave heightAir tempDewpointWater temp
2015-Feb-26 10:32N 43°23' W 001°40'0 0.0
2015-Feb-26 09:05N 43°23' W 001°40'0 0.0
2015-Feb-26 08:32N 43°23' W 001°40'0 0.0
2015-Feb-25 16:08N 43°23' W 001°40'0 0.0
2015-Feb-25 12:26N 43°23' W 001°40'0 0.1
2015-Feb-25 11:32N 43°23' W 001°40'0 0.0
2015-Feb-25 10:32N 43°23' W 001°40'0 0.0
2015-Feb-25 09:32N 43°23' W 001°40'0 0.0
2015-Feb-25 08:33N 43°23' W 001°40'0 0.1
2015-Feb-25 07:16N 43°23' W 001°40'0 0.0
2015-Feb-25 05:22N 43°23' W 001°40'0 0.0
2015-Feb-25 04:04N 43°23' W 001°40'0 0.0
2015-Feb-25 03:28N 43°23' W 001°40'0 0.0
2015-Feb-25 01:16N 43°23' W 001°40'0 0.0
2015-Feb-24 23:04N 43°23' W 001°40'0 0.0
2015-Feb-24 21:10N 43°23' W 001°40'0 0.0
2015-Feb-24 20:10N 43°23' W 001°40'0 0.0
2015-Feb-24 19:28N 43°23' W 001°40'0 0.0
2015-Feb-24 18:04N 43°23' W 001°40'0 0.0
2015-Feb-24 17:28N 43°23' W 001°40'0 0.0
2015-Feb-24 16:22N 43°23' W 001°40'0 0.0
2015-Feb-24 14:22N 43°23' W 001°40'0 0.0
2015-Feb-24 13:28N 43°23' W 001°40'0 0.0
2015-Feb-24 12:06N 43°23' W 001°40'0 0.0
2015-Feb-24 09:09N 43°23' W 001°40'0 0.0
2015-Feb-24 08:33N 43°23' W 001°40'0 0.0
2015-Feb-23 16:31N 43°23' W 001°40'0 0.0
2015-Feb-23 11:16N 43°23' W 001°40'0 0.0
2015-Feb-23 03:17N 43°23' W 001°40'0 0.0
2015-Feb-22 23:29N 43°23' W 001°40'0 0.0
2015-Feb-22 22:05N 43°23' W 001°40'0 0.0
2015-Feb-22 20:33N 43°23' W 001°40'0 0.1
2015-Feb-22 19:32N 43°23' W 001°40'0 0.1
2015-Feb-22 18:33N 43°23' W 001°40'8 7.6
2015-Feb-22 17:33N 43°31' W 001°40'59 2.0
2015-Feb-21 12:17N 44°29' W 001°28'1 0.0
2015-Feb-20 11:10N 44°29' W 001°29'2 1.6
2015-Feb-20 10:07N 44°27' W 001°29'2 2.0
2015-Feb-20 09:10N 44°25' W 001°29'3 4.8
2015-Feb-20 08:33N 44°22' W 001°30'2 2.2
2015-Feb-20 07:33N 44°24' W 001°29'2 2.2
2015-Feb-20 06:33N 44°27' W 001°29'2 2.1
2015-Feb-20 05:33N 44°29' W 001°29'1 1.4
2015-Feb-20 04:33N 44°27' W 001°28'2 1.8
2015-Feb-20 03:32N 44°26' W 001°28'1 0.8
2015-Feb-20 02:14N 44°25' W 001°28'0 0.0
2015-Feb-20 01:24N 44°25' W 001°28'0 0.0
2015-Feb-20 00:23N 44°25' W 001°28'0 0.0
2015-Feb-19 20:30N 44°25' W 001°29'3 0.6
2015-Feb-19 16:04N 44°27' W 001°29'3 1.8
2015-Feb-19 14:14N 44°24' W 001°30'41 8.2
2015-Feb-19 09:15N 43°44' W 001°36'14 8.1
2015-Feb-19 07:33N 43°30' W 001°39'7 0.2
2015-Feb-18 02:17N 43°23' W 001°40'0 0.0
2015-Feb-18 00:18N 43°23' W 001°40'0 0.1
2015-Feb-17 23:32N 43°23' W 001°40'0 0.0
2015-Feb-17 21:32N 43°23' W 001°40'0 0.0
2015-Feb-17 20:17N 43°23' W 001°40'4 5.8
2015-Feb-17 19:32N 43°27' W 001°40'66 8.2
2015-Feb-17 11:29N 44°33' W 001°26'8 8.5
2015-Feb-17 10:33N 44°41' W 001°25'1 1.3
2015-Feb-17 09:33N 44°42' W 001°24'2 1.6
2015-Feb-17 08:33N 44°41' W 001°24'0 0.3
2015-Feb-17 07:33N 44°41' W 001°24'1 0.8
2015-Feb-17 06:33N 44°42' W 001°24'2 1.9
2015-Feb-17 05:33N 44°40' W 001°24'4 3.7
2015-Feb-17 04:29N 44°44' W 001°23'2 2.1
2015-Feb-17 03:32N 44°42' W 001°23'2 2.2
2015-Feb-17 02:33N 44°40' W 001°23'0 0.4
2015-Feb-17 01:33N 44°39' W 001°23'0 0.0
2015-Feb-17 00:33N 44°39' W 001°23'0 0.0
2015-Feb-16 23:33N 44°39' W 001°23'0 0.0
2015-Feb-16 22:33N 44°39' W 001°23'0 0.0
2015-Feb-16 21:33N 44°39' W 001°23'0 0.0
2015-Feb-16 20:33N 44°39' W 001°23'0 0.2
2015-Feb-16 19:33N 44°39' W 001°23'0 0.1
2015-Feb-16 18:33N 44°39' W 001°23'0 0.1
2015-Feb-16 17:33N 44°39' W 001°23'0 0.0
2015-Feb-16 16:33N 44°39' W 001°23'0 0.0
2015-Feb-16 15:33N 44°39' W 001°23'0 0.5
2015-Feb-16 14:33N 44°39' W 001°23'4 4.0
2015-Feb-16 13:33N 44°43' W 001°24'2 2.1
2015-Feb-16 12:33N 44°41' W 001°24'5 5.0
2015-Feb-16 11:33N 44°46' W 001°23'1 0.7
2015-Feb-16 10:33N 44°45' W 001°24'  

Dump ship's entire track history